^^
Saratoga-Weather Station Historical Data
Daily Summary for May 26, 2020 Units:  English    Metric   Both
Daily Weekly Monthly Yearly Custom
  High: Low: Average:
Temperature: 42.6 °F 35.6 °F 38.1 °F
Dew Point: 35.8 °F 33.4 °F 34.3 °F
Humidity: 92% 72% 87%
Wind Speed: 18mph 0mph 6mph
Wind Gust: 21mph - -
Wind- - West
Pressure: 29.8 in 29.5 in -
Precipitation: 0.1 in    
Historical Graphs
 
 
Tabular Data for May 26, 2020
Time Temperature Dew Point Pressure Wind Wind Speed Wind Gust Humidity Rainfall Rate (Hourly) solar
00:04 38.1 °F 35.8 °F 29.5 in West 2 mph 6 mph 91% 0.01 in 0 W/m2
00:09 37.9 °F 35.6 °F 29.5 in ESE 4 mph 11 mph 91% 0 in 0 W/m2
00:14 37.9 °F 35.8 °F 29.5 in SW 4.9 mph 9 mph 92% 0 in 0 W/m2
00:19 37.9 °F 35.6 °F 29.5 in SE 4 mph 11 mph 91% 0 in 0 W/m2
00:24 37.9 °F 35.6 °F 29.5 in WSW 6.9 mph 7 mph 91% 0.01 in 0 W/m2
00:29 37.8 °F 35.6 °F 29.5 in WNW 6.9 mph 10 mph 92% 0.01 in 0 W/m2
00:35 37.8 °F 35.6 °F 29.5 in NW 4.9 mph 5 mph 92% 0.01 in 0 W/m2
00:40 37.8 °F 35.6 °F 29.5 in SSW 4.9 mph 9 mph 92% 0.01 in 0 W/m2
00:45 37.8 °F 35.6 °F 29.5 in West 2 mph 8 mph 92% 0.01 in 0 W/m2
00:50 37.9 °F 35.8 °F 29.5 in NNW 4 mph 10 mph 92% 0.01 in 0 W/m2
00:55 37.9 °F 35.6 °F 29.5 in WNW 10.1 mph 11 mph 91% 0.01 in 0 W/m2
01:00 37.9 °F 35.6 °F 29.5 in WSW 8.1 mph 10 mph 91% 0.01 in 0 W/m2
01:05 37.9 °F 35.6 °F 29.5 in West 8.1 mph 10 mph 91% 0.01 in 0 W/m2
01:10 38.1 °F 35.8 °F 29.5 in NW 10.1 mph 12 mph 91% 0.01 in 0 W/m2
01:15 38.1 °F 35.8 °F 29.5 in West 10.1 mph 17 mph 91% 0.01 in 0 W/m2
01:20 38.1 °F 35.8 °F 29.5 in SW 2 mph 13 mph 91% 0.01 in 0 W/m2
01:25 38.1 °F 35.4 °F 29.5 in WNW 2.9 mph 16 mph 90% 0 in 0 W/m2
01:30 37.9 °F 35.2 °F 29.5 in NW 2 mph 12 mph 90% 0 in 0 W/m2
01:35 37.9 °F 35.2 °F 29.5 in West 4 mph 9 mph 90% 0 in 0 W/m2
01:41 37.9 °F 35.2 °F 29.5 in West 8.1 mph 10 mph 90% 0 in 0 W/m2
01:46 37.9 °F 35.2 °F 29.5 in NW 8.1 mph 8 mph 90% 0 in 0 W/m2
01:51 37.9 °F 35.2 °F 29.5 in WSW 2.9 mph 10 mph 90% 0 in 0 W/m2
01:56 37.9 °F 35.6 °F 29.5 in WNW 4 mph 4 mph 91% 0 in 0 W/m2
02:01 37.9 °F 35.2 °F 29.5 in West 4 mph 10 mph 90% 0 in 0 W/m2
02:06 37.9 °F 35.2 °F 29.5 in NW 2.9 mph 13 mph 90% 0 in 0 W/m2
02:11 37.9 °F 35.2 °F 29.5 in WSW 10.1 mph 10 mph 90% 0 in 0 W/m2
02:16 38.1 °F 35.4 °F 29.5 in SW 4 mph 9 mph 90% 0 in 0 W/m2
02:21 38.1 °F 35.4 °F 29.5 in WSW 4 mph 11 mph 90% 0 in 0 W/m2
02:26 37.8 °F 35.1 °F 29.5 in WSW 4.9 mph 10 mph 90% 0.01 in 0 W/m2
02:31 37.4 °F 34.7 °F 29.5 in West 8.9 mph 9 mph 90% 0.02 in 0 W/m2
02:36 37.2 °F 34.9 °F 29.5 in WSW 10.1 mph 10 mph 91% 0.02 in 0 W/m2
02:41 37.4 °F 35.1 °F 29.5 in West 11 mph 11 mph 91% 0.02 in 0 W/m2
02:46 37.6 °F 35.2 °F 29.5 in WNW 8.9 mph 9 mph 91% 0.02 in 0 W/m2
02:51 37.8 °F 35.4 °F 29.5 in WSW 0.9 mph 7 mph 91% 0.02 in 0 W/m2
02:56 37.8 °F 35.4 °F 29.5 in West 0.9 mph 7 mph 91% 0.02 in 0 W/m2
03:01 37.6 °F 35.2 °F 29.5 in WNW 6.9 mph 9 mph 91% 0.02 in 0 W/m2
03:06 37.4 °F 35.1 °F 29.5 in West 4 mph 10 mph 91% 0.03 in 0 W/m2
03:11 37.4 °F 35.1 °F 29.5 in West 4 mph 8 mph 91% 0.03 in 0 W/m2
03:16 37.4 °F 35.1 °F 29.5 in West 2.9 mph 7 mph 91% 0.03 in 0 W/m2
03:21 37.4 °F 35.1 °F 29.5 in NW 11 mph 11 mph 91% 0.03 in 0 W/m2
03:26 36.7 °F 34 °F 29.5 in WNW 8.1 mph 10 mph 90% 0.02 in 0 W/m2
03:31 36.3 °F 34.2 °F 29.5 in West 2 mph 9 mph 92% 0.02 in 0 W/m2
03:36 36.3 °F 34.2 °F 29.5 in WSW 4.9 mph 9 mph 92% 0.02 in 0 W/m2
03:41 36.3 °F 34.2 °F 29.5 in West 8.9 mph 14 mph 92% 0.02 in 0 W/m2
03:46 36.3 °F 34.2 °F 29.5 in West 6 mph 8 mph 92% 0.02 in 0 W/m2
03:51 36.3 °F 34.2 °F 29.5 in NW 8.1 mph 8 mph 92% 0.02 in 0 W/m2
03:56 36.1 °F 34 °F 29.5 in SW 2 mph 7 mph 92% 0.02 in 0 W/m2
04:01 36.1 °F 34 °F 29.5 in WNW 8.9 mph 11 mph 92% 0.01 in 0 W/m2
04:06 36.1 °F 34 °F 29.5 in North 4.9 mph 12 mph 92% 0 in 0 W/m2
04:11 36.1 °F 34 °F 29.5 in WNW 13 mph 13 mph 92% 0 in 0 W/m2
04:16 36.1 °F 34 °F 29.5 in WNW 6 mph 8 mph 92% 0 in 0 W/m2
04:21 36.1 °F 34 °F 29.5 in WNW 8.1 mph 10 mph 92% 0 in 0 W/m2
04:26 36.3 °F 34.2 °F 29.5 in WSW 2 mph 5 mph 92% 0 in 0 W/m2
04:32 36.5 °F 34.2 °F 29.5 in WNW 0.9 mph 4 mph 91% 0 in 0 W/m2
04:37 36.7 °F 34.3 °F 29.5 in West 6 mph 11 mph 91% 0 in 0 W/m2
04:42 36.9 °F 34.5 °F 29.5 in WSW 2 mph 12 mph 91% 0 in 0 W/m2
04:47 37 °F 34.3 °F 29.5 in WNW 4 mph 7 mph 90% 0 in 0 W/m2
04:52 37.2 °F 34.5 °F 29.5 in NNW 2 mph 9 mph 90% 0 in 0 W/m2
04:57 37.2 °F 34.5 °F 29.5 in South 2.9 mph 9 mph 90% 0 in 0 W/m2
05:02 37.6 °F 34.7 °F 29.5 in WSW 2.9 mph 10 mph 89% 0 in 0 W/m2
05:07 37.8 °F 34.9 °F 29.5 in NNW 6 mph 8 mph 89% 0 in 0 W/m2
05:12 37.8 °F 34.9 °F 29.5 in West 6 mph 6 mph 89% 0 in 0 W/m2
05:17 37.4 °F 34.5 °F 29.5 in WNW 8.9 mph 15 mph 89% 0.01 in 0 W/m2
05:22 37.2 °F 34.3 °F 29.5 in WNW 2 mph 9 mph 89% 0.01 in 0 W/m2
05:27 37 °F 34.3 °F 29.5 in NW 2 mph 9 mph 90% 0.01 in 0 W/m2
05:32 36.9 °F 34.2 °F 29.5 in West 6 mph 8 mph 90% 0.02 in 0 W/m2
05:38 36.9 °F 34.5 °F 29.5 in West 2 mph 4 mph 91% 0.02 in 0 W/m2
05:43 36.9 °F 34.5 °F 29.5 in WNW 8.1 mph 8 mph 91% 0.02 in 0 W/m2
05:48 36.7 °F 34.3 °F 29.5 in West 0.9 mph 7 mph 91% 0.02 in 0 W/m2
05:53 36.7 °F 34.3 °F 29.5 in WNW 2 mph 3 mph 91% 0.02 in 0 W/m2
05:58 36.7 °F 34.5 °F 29.5 in SW 6.9 mph 8 mph 92% 0.02 in 0 W/m2
06:03 36.9 °F 34.7 °F 29.5 in WNW 2 mph 2 mph 92% 0.02 in 0 W/m2
06:08 36.9 °F 34.7 °F 29.5 in West 2 mph 7 mph 92% 0.02 in 0 W/m2
06:13 36.9 °F 34.5 °F 29.5 in WSW 4.9 mph 6 mph 91% 0.01 in 0 W/m2
06:18 36.9 °F 34.5 °F 29.5 in NW 2.9 mph 11 mph 91% 0.02 in 0 W/m2
06:23 36.9 °F 34.5 °F 29.5 in WNW 2 mph 5 mph 91% 0.02 in 0 W/m2
06:28 36.9 °F 34.5 °F 29.5 in WNW 10.1 mph 15 mph 91% 0.02 in 0 W/m2
06:33 36.9 °F 34.5 °F 29.5 in NW 4 mph 9 mph 91% 0.01 in 0 W/m2
06:38 36.9 °F 34.5 °F 29.5 in WNW 2.9 mph 15 mph 91% 0.01 in 0 W/m2
06:43 36.7 °F 34.3 °F 29.5 in WSW 2 mph 6 mph 91% 0.01 in 0 W/m2
06:48 36.3 °F 34 °F 29.5 in West 2 mph 12 mph 91% 0.01 in 0 W/m2
06:53 36.1 °F 33.8 °F 29.5 in West 6.9 mph 9 mph 91% 0.01 in 0 W/m2
06:58 36.1 °F 33.8 °F 29.5 in WNW 8.1 mph 13 mph 91% 0.01 in 0 W/m2
07:03 36 °F 33.8 °F 29.5 in WNW 2.9 mph 8 mph 92% 0.01 in 0 W/m2
07:08 36 °F 33.6 °F 29.5 in WNW 4.9 mph 12 mph 91% 0.02 in 0 W/m2
07:13 36 °F 33.8 °F 29.5 in WNW 6.9 mph 10 mph 92% 0.02 in 0 W/m2
07:18 35.8 °F 33.6 °F 29.5 in WSW 4 mph 18 mph 92% 0.01 in 0 W/m2
07:23 35.8 °F 33.6 °F 29.5 in West 8.1 mph 13 mph 92% 0.01 in 0 W/m2
07:28 35.8 °F 33.6 °F 29.5 in WNW 8.1 mph 17 mph 92% 0.01 in 0 W/m2
07:33 35.8 °F 33.6 °F 29.5 in WSW 4.9 mph 13 mph 92% 0.01 in 5 W/m2
07:38 35.6 °F 33.4 °F 29.5 in WNW 4 mph 15 mph 92% 0.01 in 5 W/m2
07:43 35.8 °F 33.6 °F 29.5 in WSW 11 mph 11 mph 92% 0.01 in 5 W/m2
07:48 35.8 °F 33.6 °F 29.5 in West 8.1 mph 14 mph 92% 0.01 in 7 W/m2
07:53 36 °F 33.8 °F 29.5 in WNW 10.1 mph 14 mph 92% 0.01 in 14 W/m2
07:58 36 °F 33.8 °F 29.5 in WSW 8.9 mph 12 mph 92% 0.01 in 25 W/m2
08:03 36 °F 33.6 °F 29.5 in West 10.1 mph 14 mph 91% 0.01 in 30 W/m2
08:08 36.1 °F 33.8 °F 29.5 in West 6.9 mph 7 mph 91% 0 in 23 W/m2
08:13 36.1 °F 33.8 °F 29.5 in West 10.1 mph 11 mph 91% 0 in 32 W/m2
08:18 36.1 °F 33.8 °F 29.5 in West 8.9 mph 12 mph 91% 0 in 70 W/m2
08:23 36.1 °F 33.4 °F 29.5 in WNW 6.9 mph 9 mph 90% 0 in 39 W/m2
08:28 36.1 °F 33.8 °F 29.5 in West 8.9 mph 10 mph 91% 0.01 in 30 W/m2
08:33 36.1 °F 33.4 °F 29.5 in SW 4.9 mph 9 mph 90% 0.01 in 35 W/m2
08:38 36.1 °F 33.8 °F 29.5 in WSW 6.9 mph 12 mph 91% 0.01 in 37 W/m2
08:43 36 °F 33.6 °F 29.5 in West 6.9 mph 10 mph 91% 0.01 in 146 W/m2
08:48 36.1 °F 33.8 °F 29.5 in NW 4.9 mph 12 mph 91% 0.01 in 28 W/m2
08:53 36 °F 33.6 °F 29.5 in WNW 4 mph 7 mph 91% 0.01 in 33 W/m2
08:58 36 °F 33.6 °F 29.5 in NW 4.9 mph 12 mph 91% 0.01 in 104 W/m2
09:03 36.1 °F 33.8 °F 29.5 in WNW 8.9 mph 12 mph 91% 0.01 in 54 W/m2
09:08 36.1 °F 33.8 °F 29.5 in West 13 mph 14 mph 91% 0.01 in 91 W/m2
09:13 36.1 °F 33.4 °F 29.5 in WSW 15 mph 15 mph 90% 0.02 in 91 W/m2
09:18 36.1 °F 33.4 °F 29.5 in WNW 4.9 mph 14 mph 90% 0.02 in 81 W/m2
09:23 36.3 °F 33.6 °F 29.5 in West 6 mph 10 mph 90% 0.02 in 83 W/m2
09:28 36.3 °F 33.6 °F 29.5 in WNW 6 mph 14 mph 90% 0.01 in 105 W/m2
09:33 36.7 °F 33.8 °F 29.5 in West 2 mph 13 mph 89% 0.01 in 102 W/m2
09:39 36.7 °F 33.8 °F 29.5 in WSW 11 mph 12 mph 89% 0.01 in 160 W/m2
09:44 36.9 °F 34 °F 29.6 in West 4 mph 17 mph 89% 0.01 in 118 W/m2
09:49 37 °F 34.2 °F 29.6 in WSW 6.9 mph 16 mph 89% 0.01 in 132 W/m2
09:54 37 °F 34.2 °F 29.6 in NW 6 mph 17 mph 89% 0.01 in 186 W/m2
09:59 37.2 °F 34 °F 29.6 in West 6.9 mph 9 mph 88% 0.01 in 118 W/m2
10:04 37.4 °F 34.2 °F 29.6 in WNW 6 mph 14 mph 88% 0.01 in 200 W/m2
10:09 37.6 °F 34.3 °F 29.6 in NW 6 mph 18 mph 88% 0.01 in 213 W/m2
10:14 37.8 °F 34.2 °F 29.6 in West 6.9 mph 14 mph 87% 0 in 278 W/m2
10:19 37.8 °F 34.2 °F 29.6 in West 6 mph 18 mph 87% 0.01 in 158 W/m2
10:24 37.8 °F 34.2 °F 29.6 in WNW 4.9 mph 14 mph 87% 0.01 in 548 W/m2
10:29 37.9 °F 34.3 °F 29.6 in SW 8.9 mph 10 mph 87% 0.01 in 172 W/m2
10:34 37.9 °F 34.3 °F 29.6 in WSW 8.1 mph 11 mph 87% 0.01 in 323 W/m2
10:39 38.1 °F 34.9 °F 29.6 in West 4 mph 9 mph 88% 0.01 in 193 W/m2
10:44 38.1 °F 34.5 °F 29.6 in WNW 8.9 mph 12 mph 87% 0.01 in 97 W/m2
10:49 37.9 °F 34.3 °F 29.6 in West 6 mph 14 mph 87% 0.01 in 125 W/m2
10:55 37.9 °F 34.3 °F 29.6 in WSW 11 mph 13 mph 87% 0.01 in 169 W/m2
11:00 37.9 °F 34.3 °F 29.6 in West 8.9 mph 13 mph 87% 0.01 in 213 W/m2
11:05 37.9 °F 34.3 °F 29.6 in NW 8.1 mph 12 mph 87% 0.01 in 285 W/m2
11:10 37.9 °F 34.3 °F 29.6 in WNW 8.9 mph 14 mph 87% 0.02 in 149 W/m2
11:15 37.9 °F 34.3 °F 29.6 in SW 6.9 mph 16 mph 87% 0.02 in 183 W/m2
11:20 38.1 °F 34.9 °F 29.6 in NNW 8.9 mph 11 mph 88% 0.01 in 141 W/m2
11:25 38.1 °F 34.5 °F 29.6 in West 6.9 mph 19 mph 87% 0.01 in 248 W/m2
11:30 38.3 °F 34.5 °F 29.6 in WSW 10.1 mph 18 mph 86% 0.01 in 381 W/m2
11:35 38.8 °F 34.7 °F 29.6 in WNW 4.9 mph 19 mph 85% 0.01 in 162 W/m2
11:40 39 °F 34.9 °F 29.6 in West 8.9 mph 12 mph 85% 0.01 in 257 W/m2
11:45 39.4 °F 35.2 °F 29.6 in West 11 mph 17 mph 85% 0.01 in 272 W/m2
11:51 39.2 °F 34.5 °F 29.6 in West 11 mph 20 mph 83% 0.01 in 88 W/m2
11:56 38.7 °F 34.2 °F 29.6 in West 11 mph 14 mph 84% 0.01 in 190 W/m2
12:01 38.7 °F 34.5 °F 29.6 in West 6.9 mph 16 mph 85% 0.01 in 269 W/m2
12:06 39 °F 34.5 °F 29.6 in West 8.9 mph 15 mph 84% 0.01 in 255 W/m2
12:11 39.6 °F 34.9 °F 29.6 in WSW 8.1 mph 14 mph 83% 0 in 555 W/m2
12:16 39.9 °F 34.9 °F 29.6 in SW 6.9 mph 13 mph 82% 0 in 492 W/m2
12:21 39.7 °F 34.7 °F 29.6 in WNW 6 mph 12 mph 82% 0 in 95 W/m2
12:26 39.4 °F 34.7 °F 29.6 in West 6.9 mph 8 mph 83% 0 in 58 W/m2
12:31 39.4 °F 34.9 °F 29.6 in West 6 mph 11 mph 84% 0 in 475 W/m2
12:36 39.7 °F 35.1 °F 29.6 in West 11 mph 15 mph 83% 0 in 480 W/m2
12:41 40.5 °F 35.1 °F 29.6 in WNW 8.9 mph 20 mph 81% 0 in 441 W/m2
12:46 40.6 °F 34.9 °F 29.6 in WNW 8.9 mph 14 mph 80% 0 in 364 W/m2
12:51 40.5 °F 33.8 °F 29.6 in West 8.9 mph 19 mph 77% 0 in 452 W/m2
12:56 40.6 °F 34.3 °F 29.6 in WSW 8.9 mph 17 mph 78% 0 in 533 W/m2
13:01 41.2 °F 34.5 °F 29.6 in West 8.9 mph 20 mph 77% 0 in 666 W/m2
13:06 41.4 °F 34 °F 29.6 in NW 16.1 mph 21 mph 75% 0 in 613 W/m2
13:11 41.4 °F 34 °F 29.6 in NW 11 mph 16 mph 75% 0 in 373 W/m2
13:16 41.5 °F 34.5 °F 29.6 in North 12.1 mph 16 mph 76% 0 in 132 W/m2
13:21 41.2 °F 33.8 °F 29.6 in NW 4.9 mph 15 mph 75% 0 in 193 W/m2
13:26 41 °F 34 °F 29.6 in WNW 4 mph 15 mph 76% 0 in 234 W/m2
13:31 41 °F 34 °F 29.6 in West 4 mph 12 mph 76% 0 in 241 W/m2
13:36 41 °F 33.6 °F 29.6 in WSW 4.9 mph 18 mph 75% 0 in 118 W/m2
13:41 40.8 °F 33.8 °F 29.6 in WSW 4 mph 12 mph 76% 0 in 162 W/m2
13:46 40.8 °F 33.8 °F 29.6 in NW 8.9 mph 18 mph 76% 0 in 243 W/m2
13:51 41.2 °F 34.2 °F 29.6 in WSW 8.1 mph 15 mph 76% 0 in 169 W/m2
13:56 41.2 °F 33.8 °F 29.6 in West 8.9 mph 20 mph 75% 0 in 221 W/m2
14:01 41.2 °F 33.8 °F 29.6 in NNW 8.1 mph 18 mph 75% 0 in 171 W/m2
14:06 41.4 °F 34.3 °F 29.6 in WNW 4.9 mph 13 mph 76% 0 in 223 W/m2
14:11 41.9 °F 34.5 °F 29.6 in WNW 12.1 mph 15 mph 75% 0 in 236 W/m2
14:16 42.4 °F 34.3 °F 29.6 in West 8.9 mph 13 mph 73% 0 in 271 W/m2
14:21 42.4 °F 34 °F 29.6 in WNW 8.1 mph 13 mph 72% 0 in 281 W/m2
14:27 42.6 °F 34.2 °F 29.7 in West 11 mph 18 mph 72% 0 in 211 W/m2
14:32 42.6 °F 34.2 °F 29.7 in WNW 4.9 mph 9 mph 72% 0 in 214 W/m2
14:37 42.4 °F 34 °F 29.7 in WNW 18 mph 18 mph 72% 0 in 130 W/m2
14:42 42.3 °F 34.5 °F 29.7 in WNW 4 mph 9 mph 74% 0 in 406 W/m2
14:47 42.3 °F 34.2 °F 29.7 in WNW 15 mph 15 mph 73% 0 in 171 W/m2
14:52 42.3 °F 34.2 °F 29.7 in WNW 4 mph 12 mph 73% 0 in 271 W/m2
14:57 42.4 °F 34.7 °F 29.7 in West 8.1 mph 8 mph 74% 0 in 179 W/m2
15:02 42.6 °F 35.2 °F 29.7 in SW 6.9 mph 13 mph 75% 0 in 207 W/m2
15:07 42.4 °F 34.3 °F 29.7 in West 6.9 mph 11 mph 73% 0 in 183 W/m2
15:12 42.3 °F 34.2 °F 29.7 in WSW 10.1 mph 11 mph 73% 0 in 97 W/m2
15:17 42.1 °F 34 °F 29.7 in WNW 8.1 mph 13 mph 73% 0 in 153 W/m2
15:22 42.1 °F 34.3 °F 29.7 in West 6 mph 19 mph 74% 0 in 137 W/m2
15:27 42.3 °F 34.5 °F 29.7 in NW 4.9 mph 8 mph 74% 0 in 141 W/m2
15:32 42.3 °F 34.5 °F 29.7 in WSW 10.1 mph 19 mph 74% 0 in 199 W/m2
15:37 42.1 °F 34.3 °F 29.7 in WNW 4.9 mph 15 mph 74% 0 in 109 W/m2
15:42 41.7 °F 34.3 °F 29.7 in SSE 2.9 mph 9 mph 75% 0 in 74 W/m2
15:47 41.7 °F 34.7 °F 29.7 in WSW 10.1 mph 13 mph 76% 0 in 142 W/m2
15:52 41.5 °F 34.5 °F 29.7 in West 6.9 mph 9 mph 76% 0 in 165 W/m2
15:57 41.2 °F 34.9 °F 29.7 in WNW 4.9 mph 14 mph 78% 0 in 193 W/m2
16:02 40.8 °F 34.9 °F 29.7 in WSW 11 mph 16 mph 79% 0 in 336 W/m2
16:07 41.2 °F 35.4 °F 29.7 in West 6 mph 11 mph 80% 0 in 329 W/m2
16:12 41.2 °F 35.2 °F 29.7 in WNW 10.1 mph 11 mph 79% 0 in 355 W/m2
16:17 41.2 °F 34.9 °F 29.7 in WNW 8.9 mph 11 mph 78% 0 in 230 W/m2
16:22 41.2 °F 34.9 °F 29.7 in West 10.1 mph 13 mph 78% 0 in 111 W/m2
16:28 40.8 °F 34.9 °F 29.7 in West 8.1 mph 16 mph 79% 0 in 107 W/m2
16:33 40.6 °F 34.7 °F 29.7 in WNW 8.9 mph 12 mph 79% 0 in 125 W/m2
16:38 40.6 °F 34.9 °F 29.7 in WSW 8.9 mph 12 mph 80% 0 in 111 W/m2
16:43 40.6 °F 34.9 °F 29.7 in West 6.9 mph 11 mph 80% 0 in 40 W/m2
16:48 40.6 °F 34.7 °F 29.7 in SW 6.9 mph 10 mph 79% 0 in 28 W/m2
16:53 40.6 °F 34.7 °F 29.7 in NW 6.9 mph 8 mph 79% 0 in 25 W/m2
16:58 40.8 °F 34.9 °F 29.7 in West 10.1 mph 12 mph 79% 0 in 30 W/m2
17:03 40.6 °F 34.7 °F 29.7 in WNW 2.9 mph 10 mph 79% 0 in 19 W/m2
17:08 40.6 °F 34.7 °F 29.7 in West 2.9 mph 14 mph 79% 0 in 18 W/m2
17:13 40.5 °F 34.7 °F 29.7 in WNW 8.1 mph 9 mph 80% 0 in 25 W/m2
17:18 40.3 °F 34.9 °F 29.7 in SSW 4.9 mph 20 mph 81% 0 in 37 W/m2
17:23 39.6 °F 34.5 °F 29.7 in WSW 8.1 mph 13 mph 82% 0 in 21 W/m2
17:28 39.2 °F 34.7 °F 29.7 in West 4 mph 20 mph 84% 0 in 23 W/m2
17:33 39 °F 34.5 °F 29.7 in WSW 4 mph 6 mph 84% 0 in 28 W/m2
17:38 39 °F 34.5 °F 29.7 in West 6.9 mph 9 mph 84% 0 in 26 W/m2
17:43 39.2 °F 34.7 °F 29.7 in West 8.1 mph 12 mph 84% 0 in 23 W/m2
17:48 39.4 °F 34.7 °F 29.7 in West 6 mph 13 mph 83% 0 in 21 W/m2
17:53 39.4 °F 34.7 °F 29.7 in West 2.9 mph 7 mph 83% 0 in 16 W/m2
17:58 39.4 °F 34.7 °F 29.7 in WSW 8.1 mph 8 mph 83% 0 in 11 W/m2
18:03 39.4 °F 34.7 °F 29.7 in WSW 2.9 mph 5 mph 83% 0 in 9 W/m2
18:08 39.2 °F 34.7 °F 29.7 in WNW 6.9 mph 9 mph 84% 0 in 5 W/m2
18:13 39 °F 34.5 °F 29.7 in West 8.1 mph 8 mph 84% 0 in 0 W/m2
18:18 38.8 °F 34.3 °F 29.7 in WNW 4.9 mph 6 mph 84% 0 in 0 W/m2
18:23 38.8 °F 34.7 °F 29.7 in NW 4 mph 11 mph 85% 0 in 0 W/m2
18:28 38.7 °F 34.5 °F 29.7 in West 6 mph 6 mph 85% 0 in 0 W/m2
18:33 38.7 °F 34.5 °F 29.7 in West 4 mph 11 mph 85% 0 in 0 W/m2
18:38 38.5 °F 34.3 °F 29.7 in SW 6 mph 6 mph 85% 0 in 0 W/m2
18:43 38.3 °F 34.2 °F 29.7 in West 4 mph 10 mph 85% 0 in 0 W/m2
18:48 38.1 °F 34 °F 29.8 in WNW 0.9 mph 5 mph 85% 0 in 0 W/m2
18:53 37.9 °F 34.2 °F 29.8 in West 2 mph 10 mph 86% 0 in 0 W/m2
18:58 37.9 °F 34.2 °F 29.8 in West 2 mph 6 mph 86% 0 in 0 W/m2
19:03 37.9 °F 34.2 °F 29.8 in NW 0.9 mph 3 mph 86% 0 in 0 W/m2
19:08 37.8 °F 34 °F 29.8 in WSW 0.9 mph 2 mph 86% 0 in 0 W/m2
19:13 37.8 °F 34.2 °F 29.8 in WSW 2 mph 2 mph 87% 0 in 0 W/m2
19:19 37.8 °F 34.2 °F 29.8 in NW 2 mph 4 mph 87% 0 in 0 W/m2
19:24 37.8 °F 34.2 °F 29.8 in NW 4 mph 10 mph 87% 0 in 0 W/m2
19:29 37.8 °F 34.2 °F 29.8 in WNW 6.9 mph 9 mph 87% 0 in 0 W/m2
19:34 37.8 °F 34.2 °F 29.8 in West 6 mph 12 mph 87% 0 in 0 W/m2
19:39 37.8 °F 34.2 °F 29.8 in SW 4.9 mph 9 mph 87% 0 in 0 W/m2
19:44 37.8 °F 34.2 °F 29.8 in NW 4 mph 6 mph 87% 0 in 0 W/m2
19:49 37.6 °F 34.3 °F 29.8 in West 8.9 mph 9 mph 88% 0 in 0 W/m2
19:54 37.6 °F 34.3 °F 29.8 in West 4 mph 11 mph 88% 0 in 0 W/m2
19:59 37.6 °F 34.3 °F 29.8 in WNW 6.9 mph 10 mph 88% 0 in 0 W/m2
20:04 37.6 °F 34.3 °F 29.8 in West 4 mph 12 mph 88% 0 in 0 W/m2
20:09 37.6 °F 34.3 °F 29.8 in SW 2.9 mph 10 mph 88% 0 in 0 W/m2
20:14 37.6 °F 34.3 °F 29.8 in West 6 mph 7 mph 88% 0 in 0 W/m2
20:19 37.6 °F 34.3 °F 29.8 in West 6 mph 8 mph 88% 0 in 0 W/m2
20:24 37.6 °F 34.3 °F 29.8 in West 2 mph 9 mph 88% 0 in 0 W/m2
20:29 37.6 °F 34.3 °F 29.8 in WNW 2.9 mph 8 mph 88% 0 in 0 W/m2
20:34 37.6 °F 34.3 °F 29.8 in WSW 4.9 mph 9 mph 88% 0 in 0 W/m2
20:39 37.4 °F 34.2 °F 29.8 in WNW 4 mph 6 mph 88% 0 in 0 W/m2
20:44 37.4 °F 34.2 °F 29.8 in WNW 12.1 mph 12 mph 88% 0 in 0 W/m2
20:49 37.6 °F 34.3 °F 29.8 in West 8.1 mph 8 mph 88% 0 in 0 W/m2
20:54 37.6 °F 34.3 °F 29.8 in WSW 4 mph 12 mph 88% 0 in 0 W/m2
20:59 37.4 °F 34.2 °F 29.8 in West 4 mph 7 mph 88% 0 in 0 W/m2
21:04 37.2 °F 34.3 °F 29.8 in WSW 2.9 mph 7 mph 89% 0 in 0 W/m2
21:09 37.2 °F 34.3 °F 29.8 in WSW 4.9 mph 6 mph 89% 0 in 0 W/m2
21:14 37.2 °F 34.3 °F 29.8 in West 6.9 mph 7 mph 89% 0 in 0 W/m2
21:19 37.2 °F 34.3 °F 29.8 in WNW 2.9 mph 8 mph 89% 0 in 0 W/m2
21:24 37 °F 34.2 °F 29.8 in South 4 mph 4 mph 89% 0 in 0 W/m2
21:29 37 °F 34.2 °F 29.8 in SW 4 mph 7 mph 89% 0 in 0 W/m2
21:34 37 °F 34.2 °F 29.8 in WNW 4 mph 4 mph 89% 0 in 0 W/m2
21:39 37 °F 34.2 °F 29.8 in West 2 mph 4 mph 89% 0 in 0 W/m2
21:44 36.9 °F 34 °F 29.8 in WSW 0.9 mph 8 mph 89% 0 in 0 W/m2
21:49 36.9 °F 34.2 °F 29.8 in SSW 0.9 mph 4 mph 90% 0 in 0 W/m2
21:54 36.9 °F 34.2 °F 29.8 in West 4 mph 4 mph 90% 0 in 0 W/m2
21:59 36.9 °F 34.2 °F 29.8 in West 8.1 mph 8 mph 90% 0 in 0 W/m2
22:04 36.9 °F 34.2 °F 29.8 in WSW 4 mph 7 mph 90% 0 in 0 W/m2
22:09 36.9 °F 34.2 °F 29.8 in WSW 4.9 mph 10 mph 90% 0 in 0 W/m2
22:14 36.9 °F 34.2 °F 29.8 in WNW 2.9 mph 7 mph 90% 0 in 0 W/m2
22:19 37 °F 34.3 °F 29.8 in WNW 2 mph 10 mph 90% 0 in 0 W/m2
22:24 36.9 °F 34.2 °F 29.8 in West 6 mph 6 mph 90% 0 in 0 W/m2
22:29 36.9 °F 34.2 °F 29.8 in NW 4.9 mph 8 mph 90% 0 in 0 W/m2
22:34 36.9 °F 34.2 °F 29.8 in NW 4.9 mph 7 mph 90% 0 in 0 W/m2
22:39 36.9 °F 34.2 °F 29.8 in WNW 4 mph 7 mph 90% 0 in 0 W/m2
22:44 36.9 °F 34.2 °F 29.8 in West 6.9 mph 9 mph 90% 0 in 0 W/m2
22:49 36.9 °F 34.2 °F 29.8 in West 2.9 mph 5 mph 90% 0 in 0 W/m2
22:54 36.9 °F 34.2 °F 29.8 in West 6.9 mph 10 mph 90% 0 in 0 W/m2
22:59 36.9 °F 34.2 °F 29.8 in West 2.9 mph 7 mph 90% 0 in 0 W/m2
23:04 36.9 °F 34.2 °F 29.8 in SW 2.9 mph 10 mph 90% 0 in 0 W/m2
23:09 37 °F 34.3 °F 29.8 in SW 2 mph 7 mph 90% 0 in 0 W/m2
23:14 36.9 °F 34.2 °F 29.8 in SW 2 mph 8 mph 90% 0 in 0 W/m2
23:19 37 °F 34.3 °F 29.8 in Calm   4 mph 90% 0 in 0 W/m2
23:24 36.9 °F 34.2 °F 29.8 in Calm   7 mph 90% 0 in 0 W/m2
23:29 36.9 °F 34.2 °F 29.8 in WNW 0.9 mph 3 mph 90% 0 in 0 W/m2
23:34 36.9 °F 34.2 °F 29.8 in WNW 2.9 mph 10 mph 90% 0 in 0 W/m2
23:39 36.9 °F 34.2 °F 29.8 in WNW 2 mph 3 mph 90% 0 in 0 W/m2
23:44 36.9 °F 34.2 °F 29.8 in West 2 mph 3 mph 90% 0 in 0 W/m2
23:49 36.9 °F 34.2 °F 29.8 in NNW 2.9 mph 7 mph 90% 0 in 0 W/m2
23:54 36.9 °F 34 °F 29.8 in WNW 0.9 mph 2 mph 89% 0 in 0 W/m2
23:59 36.7 °F 33.8 °F 29.8 in West 2 mph 3 mph 89% 0 in 0 W/m2
Juneau County Weather
Compliments of Weather Underground - 4 mb